Terminal Aerodrome Forecast
Issued by NWS Wilmington, OH

Current Version | Previous Version | Graphics & Text | Print | Product List | Glossary On
Versions: 1 2 3 4 5 6 7 8 9 10 11 12 13 14 15 16 17 18 19
183
FTUS41 KILN 261034 AAC
TAFILN
TAF AMD
KILN 261034Z 2611/2706 30010KT P6SM BKN030
     FM261200 27008KT P6SM FEW250
     FM261500 22010KT P6SM FEW250
     FM270000 20006KT P6SM BKN250=

USA.gov is the U.S. government's official web portal to all federal, state and local government web resources and services.